Terminal Aerodrome Forecast
Issued by NWS

Home | Current Version | Previous Version | Text Only | Print | Product List | Glossary Off
Versions: 1 2 3 4 5 6 7 8 9 10 11 12 13 14 15 16 17 18 19 20 21 22 23

000
FTUS43 KUNR 170500
TAFGCC
TAF
KGCC 170520Z 1706/1806 18011KT P6SM SCT005 BKN100
      TEMPO 1706/1710 5SM BR BKN005
     FM171500 20008KT P6SM SCT006 SCT100=

USA.gov is the U.S. government's official web portal to all federal, state and local government web resources and services.